Nipigon, Canada
Current Conditions -  °F | °C
As of 1:00 AM on Monday 26 Jan 2015 (Local Time) from CYQT Reporting Station
Light Snow Light Snow  
Wind Chill:   Ceiling: 2600
Heat Index:   Visibility: 15mi
Dew Point:   Wind: 3mph
Humidity: 79%   Direction: 300°WNW
Pressure: 29.95"   Gusts: NA
Location:  49.01°N, 88.26°W
Report Text: CYQT 260600Z 30003KT 15SM -SN BKN026 OVC070 M14/M17 A2995 RMK SC6AC2 SLP162
Loading
Personal Weather Stations






























Interactive Weather Map New forecast layout! Learn more

10-Day Weather Forecast

Advertisements
Track Severe Weather on mobile